AUA1NK EDDL-LOWW
Flight info
| Callsign | AUA1NK |
|---|---|
| Flight time | 1h 8m |
| Altitude | 33000 |
| Route | DODEN7Z/05R DODEN Y853 BOMBI DCT ESATI DCT BARSU DCT EKSOS DCT LULAR DCT RUDAP DCT BUDEX BUDEX2W |
| Aircraft | A320/M-SDE3FGHIRWY/LB1 |
Departure
| Time | 2026-05-07 18:30 |
|---|---|
| Airport | Düsseldorf Airport (EDDL) |
Arrival
| Time | 2026-05-07 19:38 |
|---|---|
| Airport | Vienna International Airport (LOWW) |
| Time | Latitude | Longitude | Altitude | Speed | Heading |
|---|---|---|---|---|---|
| 2026-05-07 17:57 | 51.28105 | 6.76725 | 115 ft | 0 kts | 276° |
| 2026-05-07 18:18 | 51.28105 | 6.76734 | 114 ft | 4 kts | 278° |
| 2026-05-07 18:18 | 51.28096 | 6.76772 | 115 ft | 4 kts | 314° |
| 2026-05-07 18:19 | 51.28075 | 6.76792 | 114 ft | 4 kts | 1° |
| 2026-05-07 18:19 | 51.28064 | 6.76791 | 115 ft | 0 kts | 17° |
| 2026-05-07 18:22 | 51.28071 | 6.76794 | 116 ft | 5 kts | 17° |
| 2026-05-07 18:22 | 51.28171 | 6.76834 | 118 ft | 14 kts | 9° |
| 2026-05-07 18:22 | 51.28270 | 6.76853 | 118 ft | 15 kts | 6° |
| 2026-05-07 18:23 | 51.28379 | 6.76854 | 115 ft | 16 kts | 338° |
| 2026-05-07 18:23 | 51.28453 | 6.76726 | 116 ft | 16 kts | 266° |
| 2026-05-07 18:23 | 51.28399 | 6.76587 | 114 ft | 14 kts | 232° |
| 2026-05-07 18:23 | 51.28344 | 6.76471 | 114 ft | 12 kts | 233° |
| 2026-05-07 18:24 | 51.28292 | 6.76360 | 115 ft | 16 kts | 233° |
| 2026-05-07 18:24 | 51.28203 | 6.76172 | 116 ft | 26 kts | 233° |
| 2026-05-07 18:24 | 51.28095 | 6.75949 | 116 ft | 23 kts | 232° |
| 2026-05-07 18:24 | 51.27997 | 6.75743 | 117 ft | 24 kts | 233° |
| 2026-05-07 18:25 | 51.27895 | 6.75528 | 117 ft | 25 kts | 232° |
| 2026-05-07 18:25 | 51.27837 | 6.75403 | 117 ft | 10 kts | 242° |
| 2026-05-07 18:25 | 51.27868 | 6.75329 | 117 ft | 8 kts | 332° |
| 2026-05-07 18:25 | 51.27887 | 6.75313 | 118 ft | 0 kts | 333° |
| 2026-05-07 18:27 | 51.27888 | 6.75312 | 117 ft | 2 kts | 333° |
| 2026-05-07 18:27 | 51.27955 | 6.75260 | 114 ft | 16 kts | 340° |
| 2026-05-07 18:27 | 51.28009 | 6.75301 | 114 ft | 0 kts | 53° |
| 2026-05-07 18:29 | 51.28017 | 6.75318 | 114 ft | 10 kts | 52° |
| 2026-05-07 18:29 | 51.28181 | 6.75659 | 114 ft | 75 kts | 53° |
| 2026-05-07 18:29 | 51.28627 | 6.76596 | 117 ft | 134 kts | 53° |
| 2026-05-07 18:29 | 51.29300 | 6.77962 | 234 ft | 172 kts | 53° |
| 2026-05-07 18:30 | 51.30051 | 6.79531 | 743 ft | 185 kts | 52° |
| 2026-05-07 18:30 | 51.30885 | 6.81197 | 1332 ft | 197 kts | 51° |
| 2026-05-07 18:30 | 51.31780 | 6.82893 | 1940 ft | 201 kts | 51° |
| 2026-05-07 18:30 | 51.32654 | 6.84655 | 2599 ft | 202 kts | 53° |
| 2026-05-07 18:31 | 51.33484 | 6.86477 | 3246 ft | 203 kts | 54° |
| 2026-05-07 18:31 | 51.34293 | 6.88362 | 3779 ft | 211 kts | 56° |
| 2026-05-07 18:31 | 51.34950 | 6.90590 | 4102 ft | 236 kts | 73° |
| 2026-05-07 18:31 | 51.35244 | 6.93332 | 4449 ft | 263 kts | 85° |
| 2026-05-07 18:32 | 51.35081 | 6.96265 | 5297 ft | 269 kts | 102° |
| 2026-05-07 18:32 | 51.34654 | 6.99196 | 6154 ft | 273 kts | 101° |
| 2026-05-07 18:32 | 51.34048 | 7.02089 | 6946 ft | 279 kts | 120° |
| 2026-05-07 18:32 | 51.32870 | 7.04577 | 7752 ft | 283 kts | 129° |
| 2026-05-07 18:33 | 51.31610 | 7.07018 | 8577 ft | 287 kts | 130° |
| 2026-05-07 18:33 | 51.30328 | 7.09484 | 9396 ft | 290 kts | 130° |
| 2026-05-07 18:33 | 51.29028 | 7.11975 | 10201 ft | 294 kts | 130° |
| 2026-05-07 18:33 | 51.27679 | 7.14553 | 10586 ft | 313 kts | 130° |
| 2026-05-07 18:34 | 51.26234 | 7.17323 | 10832 ft | 335 kts | 130° |
| 2026-05-07 18:34 | 51.24721 | 7.20230 | 11414 ft | 343 kts | 130° |
| 2026-05-07 18:34 | 51.23187 | 7.23185 | 12120 ft | 348 kts | 130° |
| 2026-05-07 18:34 | 51.21631 | 7.26175 | 12839 ft | 352 kts | 130° |
| 2026-05-07 18:35 | 51.20060 | 7.29186 | 13557 ft | 355 kts | 130° |
| 2026-05-07 18:35 | 51.18466 | 7.32241 | 14203 ft | 359 kts | 130° |
| 2026-05-07 18:35 | 51.16859 | 7.35316 | 14815 ft | 363 kts | 130° |
| 2026-05-07 18:35 | 51.15234 | 7.38417 | 15443 ft | 366 kts | 131° |
| 2026-05-07 18:36 | 51.13598 | 7.41540 | 16070 ft | 369 kts | 131° |
| 2026-05-07 18:36 | 51.11944 | 7.44698 | 16681 ft | 373 kts | 131° |
| 2026-05-07 18:36 | 51.10277 | 7.47879 | 17280 ft | 376 kts | 131° |
| 2026-05-07 18:36 | 51.08587 | 7.51091 | 17876 ft | 380 kts | 131° |
| 2026-05-07 18:37 | 51.06884 | 7.54323 | 18450 ft | 383 kts | 131° |
| 2026-05-07 18:37 | 51.05165 | 7.57583 | 18966 ft | 386 kts | 131° |
| 2026-05-07 18:37 | 51.03434 | 7.60867 | 19492 ft | 389 kts | 131° |
| 2026-05-07 18:37 | 51.01687 | 7.64174 | 20012 ft | 392 kts | 131° |
| 2026-05-07 18:38 | 50.99927 | 7.67491 | 20511 ft | 395 kts | 131° |
| 2026-05-07 18:38 | 50.98148 | 7.70830 | 21021 ft | 397 kts | 133° |
| 2026-05-07 18:38 | 50.96170 | 7.73888 | 21502 ft | 398 kts | 142° |
| 2026-05-07 18:38 | 50.93892 | 7.76399 | 21988 ft | 400 kts | 150° |
| 2026-05-07 18:39 | 50.91521 | 7.78727 | 22476 ft | 402 kts | 150° |
| 2026-05-07 18:39 | 50.89136 | 7.81063 | 22957 ft | 404 kts | 150° |
| 2026-05-07 18:39 | 50.86736 | 7.83413 | 23427 ft | 407 kts | 150° |
| 2026-05-07 18:39 | 50.84316 | 7.85785 | 23838 ft | 410 kts | 150° |
| 2026-05-07 18:40 | 50.81884 | 7.88166 | 24225 ft | 412 kts | 150° |
| 2026-05-07 18:40 | 50.79473 | 7.90533 | 24604 ft | 415 kts | 150° |
| 2026-05-07 18:40 | 50.77015 | 7.92948 | 24975 ft | 417 kts | 150° |
| 2026-05-07 18:40 | 50.74543 | 7.95371 | 25336 ft | 419 kts | 150° |
| 2026-05-07 18:41 | 50.72057 | 7.97804 | 25700 ft | 422 kts | 149° |
| 2026-05-07 18:41 | 50.69555 | 8.00254 | 26059 ft | 424 kts | 149° |
| 2026-05-07 18:41 | 50.67038 | 8.02709 | 26410 ft | 427 kts | 149° |
| 2026-05-07 18:41 | 50.64501 | 8.05173 | 26760 ft | 429 kts | 149° |
| 2026-05-07 18:42 | 50.61955 | 8.07639 | 27117 ft | 431 kts | 149° |
| 2026-05-07 18:42 | 50.59495 | 8.10366 | 27437 ft | 435 kts | 138° |
| 2026-05-07 18:42 | 50.57528 | 8.14001 | 27765 ft | 439 kts | 122° |
| 2026-05-07 18:42 | 50.56186 | 8.18328 | 28090 ft | 442 kts | 113° |
| 2026-05-07 18:43 | 50.54992 | 8.22797 | 28426 ft | 444 kts | 112° |
| 2026-05-07 18:43 | 50.53812 | 8.27300 | 28761 ft | 447 kts | 112° |
| 2026-05-07 18:43 | 50.52630 | 8.31828 | 29085 ft | 449 kts | 112° |
| 2026-05-07 18:43 | 50.51442 | 8.36379 | 29411 ft | 451 kts | 112° |
| 2026-05-07 18:44 | 50.50246 | 8.40943 | 29740 ft | 453 kts | 112° |
| 2026-05-07 18:44 | 50.49039 | 8.45512 | 30017 ft | 455 kts | 112° |
| 2026-05-07 18:44 | 50.47816 | 8.50107 | 30291 ft | 456 kts | 112° |
| 2026-05-07 18:44 | 50.46586 | 8.54705 | 30544 ft | 458 kts | 112° |
| 2026-05-07 18:45 | 50.45348 | 8.59332 | 30782 ft | 460 kts | 112° |
| 2026-05-07 18:45 | 50.44105 | 8.63966 | 31019 ft | 462 kts | 112° |
| 2026-05-07 18:45 | 50.42855 | 8.68618 | 31314 ft | 462 kts | 112° |
| 2026-05-07 18:45 | 50.41608 | 8.73257 | 31655 ft | 461 kts | 112° |
| 2026-05-07 18:46 | 50.40363 | 8.77889 | 31975 ft | 461 kts | 112° |
| 2026-05-07 18:46 | 50.39114 | 8.82513 | 32297 ft | 461 kts | 113° |
| 2026-05-07 18:46 | 50.37862 | 8.87136 | 32615 ft | 460 kts | 113° |
| 2026-05-07 18:46 | 50.36613 | 8.91751 | 32940 ft | 460 kts | 113° |
| 2026-05-07 18:47 | 50.35366 | 8.96358 | 33070 ft | 457 kts | 113° |
| 2026-05-07 18:47 | 50.32907 | 9.05414 | 33075 ft | 449 kts | 113° |
| 2026-05-07 18:48 | 50.30449 | 9.14392 | 33074 ft | 448 kts | 113° |
| 2026-05-07 18:48 | 50.27988 | 9.23358 | 33080 ft | 448 kts | 113° |
| 2026-05-07 18:49 | 50.25538 | 9.32247 | 33074 ft | 448 kts | 113° |
| 2026-05-07 18:49 | 50.23055 | 9.41198 | 33078 ft | 448 kts | 113° |
| 2026-05-07 18:50 | 50.20579 | 9.50133 | 33078 ft | 448 kts | 114° |
| 2026-05-07 18:50 | 50.18101 | 9.59060 | 33075 ft | 448 kts | 114° |
| 2026-05-07 18:51 | 50.15606 | 9.67990 | 33072 ft | 448 kts | 114° |
| 2026-05-07 18:51 | 50.13106 | 9.76893 | 33068 ft | 449 kts | 114° |
| 2026-05-07 18:52 | 50.10604 | 9.85808 | 33076 ft | 449 kts | 114° |
| 2026-05-07 18:52 | 50.08091 | 9.94699 | 33072 ft | 448 kts | 114° |
| 2026-05-07 18:53 | 50.05577 | 10.03521 | 33075 ft | 448 kts | 114° |
| 2026-05-07 18:53 | 50.03032 | 10.12448 | 33078 ft | 448 kts | 114° |
| 2026-05-07 18:54 | 50.00518 | 10.21254 | 33075 ft | 448 kts | 114° |
| 2026-05-07 18:54 | 49.97979 | 10.30109 | 33077 ft | 448 kts | 114° |
| 2026-05-07 18:55 | 49.95425 | 10.38953 | 33078 ft | 448 kts | 115° |
| 2026-05-07 18:55 | 49.92867 | 10.47788 | 33075 ft | 449 kts | 115° |
| 2026-05-07 18:56 | 49.90305 | 10.56616 | 33070 ft | 449 kts | 115° |
| 2026-05-07 18:56 | 49.87738 | 10.65445 | 33075 ft | 449 kts | 115° |
| 2026-05-07 18:57 | 49.85166 | 10.74268 | 33066 ft | 450 kts | 115° |
| 2026-05-07 18:57 | 49.82580 | 10.83093 | 33067 ft | 450 kts | 115° |
| 2026-05-07 18:58 | 49.79978 | 10.91897 | 33070 ft | 450 kts | 115° |
| 2026-05-07 18:58 | 49.77371 | 11.00702 | 33068 ft | 450 kts | 115° |
| 2026-05-07 18:59 | 49.74758 | 11.09499 | 33059 ft | 450 kts | 115° |
| 2026-05-07 18:59 | 49.72141 | 11.18303 | 33061 ft | 451 kts | 115° |
| 2026-05-07 19:00 | 49.69963 | 11.25625 | 33063 ft | 451 kts | 115° |
| 2026-05-07 19:00 | 49.66891 | 11.35843 | 33058 ft | 451 kts | 116° |
| 2026-05-07 19:01 | 49.64568 | 11.44835 | 33058 ft | 452 kts | 108° |
| 2026-05-07 19:01 | 49.62978 | 11.52582 | 33047 ft | 452 kts | 108° |
| 2026-05-07 19:02 | 49.61051 | 11.61814 | 33043 ft | 453 kts | 108° |
| 2026-05-07 19:02 | 49.59122 | 11.71058 | 33032 ft | 453 kts | 108° |
| 2026-05-07 19:03 | 49.57176 | 11.80298 | 33029 ft | 453 kts | 109° |
| 2026-05-07 19:03 | 49.55239 | 11.89465 | 33025 ft | 453 kts | 109° |
| 2026-05-07 19:04 | 49.53284 | 11.98690 | 33027 ft | 453 kts | 109° |
| 2026-05-07 19:04 | 49.51322 | 12.07909 | 33025 ft | 454 kts | 109° |
| 2026-05-07 19:05 | 49.49357 | 12.17135 | 33025 ft | 454 kts | 109° |
| 2026-05-07 19:05 | 49.47375 | 12.26363 | 33033 ft | 454 kts | 109° |
| 2026-05-07 19:06 | 49.45391 | 12.35589 | 33038 ft | 455 kts | 109° |
| 2026-05-07 19:06 | 49.42392 | 12.49428 | 33044 ft | 455 kts | 109° |
| 2026-05-07 19:07 | 49.40374 | 12.58651 | 33037 ft | 456 kts | 109° |
| 2026-05-07 19:07 | 49.38342 | 12.67882 | 33047 ft | 456 kts | 110° |
| 2026-05-07 19:08 | 49.36304 | 12.77109 | 33043 ft | 457 kts | 110° |
| 2026-05-07 19:08 | 49.34132 | 12.86258 | 33047 ft | 456 kts | 112° |
| 2026-05-07 19:09 | 49.31856 | 12.95338 | 33043 ft | 456 kts | 112° |
| 2026-05-07 19:09 | 49.29587 | 13.04426 | 33043 ft | 457 kts | 112° |
| 2026-05-07 19:10 | 49.27360 | 13.13468 | 33036 ft | 457 kts | 112° |
| 2026-05-07 19:10 | 49.25114 | 13.22558 | 33040 ft | 456 kts | 112° |
| 2026-05-07 19:11 | 49.22830 | 13.31618 | 33038 ft | 456 kts | 113° |
| 2026-05-07 19:11 | 49.20403 | 13.40592 | 33033 ft | 456 kts | 114° |
| 2026-05-07 19:12 | 49.17946 | 13.49534 | 33034 ft | 456 kts | 114° |
| 2026-05-07 19:12 | 49.15516 | 13.58484 | 33036 ft | 457 kts | 114° |
| 2026-05-07 19:13 | 49.13090 | 13.67458 | 33030 ft | 457 kts | 114° |
| 2026-05-07 19:13 | 49.10656 | 13.76408 | 33033 ft | 457 kts | 114° |
| 2026-05-07 19:14 | 49.08206 | 13.85358 | 33039 ft | 457 kts | 115° |
| 2026-05-07 19:14 | 49.05757 | 13.94282 | 33036 ft | 456 kts | 115° |
| 2026-05-07 19:15 | 49.03296 | 14.03197 | 32813 ft | 455 kts | 115° |
| 2026-05-07 19:15 | 49.02071 | 14.07628 | 32553 ft | 452 kts | 115° |
| 2026-05-07 19:15 | 49.00851 | 14.12025 | 32288 ft | 449 kts | 115° |
| 2026-05-07 19:16 | 48.99635 | 14.16393 | 32024 ft | 447 kts | 115° |
| 2026-05-07 19:16 | 48.98425 | 14.20741 | 31766 ft | 445 kts | 115° |
| 2026-05-07 19:16 | 48.97221 | 14.25061 | 31508 ft | 442 kts | 115° |
| 2026-05-07 19:16 | 48.96019 | 14.29364 | 31244 ft | 440 kts | 115° |
| 2026-05-07 19:17 | 48.94706 | 14.33466 | 31056 ft | 435 kts | 123° |
| 2026-05-07 19:17 | 48.92995 | 14.37295 | 30906 ft | 431 kts | 130° |
| 2026-05-07 19:17 | 48.91184 | 14.40874 | 30358 ft | 432 kts | 130° |
| 2026-05-07 19:17 | 48.89349 | 14.44493 | 29652 ft | 432 kts | 130° |
| 2026-05-07 19:18 | 48.87516 | 14.48111 | 28905 ft | 432 kts | 130° |
| 2026-05-07 19:18 | 48.85684 | 14.51725 | 28178 ft | 432 kts | 130° |
| 2026-05-07 19:18 | 48.83851 | 14.55339 | 27473 ft | 431 kts | 130° |
| 2026-05-07 19:18 | 48.82024 | 14.58933 | 26778 ft | 430 kts | 130° |
| 2026-05-07 19:19 | 48.80203 | 14.62520 | 26110 ft | 429 kts | 130° |
| 2026-05-07 19:19 | 48.78382 | 14.66105 | 25447 ft | 428 kts | 130° |
| 2026-05-07 19:19 | 48.76571 | 14.69679 | 24806 ft | 426 kts | 130° |
| 2026-05-07 19:19 | 48.74766 | 14.73233 | 24189 ft | 425 kts | 130° |
| 2026-05-07 19:20 | 48.72964 | 14.76763 | 23551 ft | 423 kts | 130° |
| 2026-05-07 19:20 | 48.71321 | 14.80460 | 22868 ft | 424 kts | 118° |
| 2026-05-07 19:20 | 48.70322 | 14.84640 | 22403 ft | 420 kts | 108° |
| 2026-05-07 19:20 | 48.69498 | 14.88844 | 21967 ft | 413 kts | 108° |
| 2026-05-07 19:21 | 48.68683 | 14.92983 | 21539 ft | 407 kts | 108° |
| 2026-05-07 19:21 | 48.67878 | 14.97050 | 21109 ft | 401 kts | 108° |
| 2026-05-07 19:21 | 48.67081 | 15.01068 | 20708 ft | 396 kts | 108° |
| 2026-05-07 19:21 | 48.66295 | 15.05033 | 20297 ft | 391 kts | 109° |
| 2026-05-07 19:22 | 48.65516 | 15.08950 | 19890 ft | 387 kts | 109° |
| 2026-05-07 19:22 | 48.64745 | 15.12823 | 19498 ft | 383 kts | 109° |
| 2026-05-07 19:22 | 48.63982 | 15.16653 | 19108 ft | 379 kts | 109° |
| 2026-05-07 19:22 | 48.63225 | 15.20450 | 18720 ft | 375 kts | 109° |
| 2026-05-07 19:23 | 48.62475 | 15.24212 | 18332 ft | 372 kts | 109° |
| 2026-05-07 19:23 | 48.61728 | 15.27949 | 17831 ft | 371 kts | 109° |
| 2026-05-07 19:23 | 48.60977 | 15.31683 | 17296 ft | 371 kts | 109° |
| 2026-05-07 19:23 | 48.60226 | 15.35416 | 16762 ft | 371 kts | 109° |
| 2026-05-07 19:24 | 48.59473 | 15.39145 | 16245 ft | 371 kts | 109° |
| 2026-05-07 19:24 | 48.58720 | 15.42872 | 15738 ft | 371 kts | 109° |
| 2026-05-07 19:24 | 48.57968 | 15.46581 | 15324 ft | 367 kts | 109° |
| 2026-05-07 19:24 | 48.57222 | 15.50258 | 14932 ft | 364 kts | 109° |
| 2026-05-07 19:25 | 48.56491 | 15.53857 | 14423 ft | 364 kts | 108° |
| 2026-05-07 19:25 | 48.55733 | 15.57583 | 13755 ft | 369 kts | 108° |
| 2026-05-07 19:25 | 48.54985 | 15.61254 | 13041 ft | 372 kts | 108° |
| 2026-05-07 19:25 | 48.54224 | 15.64977 | 12626 ft | 367 kts | 108° |
| 2026-05-07 19:26 | 48.53480 | 15.68617 | 12279 ft | 360 kts | 108° |
| 2026-05-07 19:26 | 48.52750 | 15.72185 | 11943 ft | 353 kts | 108° |
| 2026-05-07 19:26 | 48.52031 | 15.75693 | 11614 ft | 347 kts | 108° |
| 2026-05-07 19:26 | 48.51325 | 15.79141 | 11278 ft | 341 kts | 108° |
| 2026-05-07 19:27 | 48.50630 | 15.82531 | 10951 ft | 336 kts | 108° |
| 2026-05-07 19:27 | 48.49943 | 15.85865 | 10634 ft | 331 kts | 108° |
| 2026-05-07 19:27 | 48.49262 | 15.89157 | 10316 ft | 326 kts | 108° |
| 2026-05-07 19:27 | 48.48590 | 15.92402 | 9999 ft | 322 kts | 108° |
| 2026-05-07 19:28 | 48.47926 | 15.95586 | 9664 ft | 312 kts | 108° |
| 2026-05-07 19:28 | 48.47289 | 15.98642 | 9311 ft | 300 kts | 108° |
| 2026-05-07 19:28 | 48.46667 | 16.01624 | 8966 ft | 297 kts | 108° |
| 2026-05-07 19:28 | 48.46048 | 16.04587 | 8626 ft | 295 kts | 108° |
| 2026-05-07 19:29 | 48.45436 | 16.07517 | 8295 ft | 292 kts | 108° |
| 2026-05-07 19:29 | 48.44829 | 16.10419 | 7946 ft | 289 kts | 108° |
| 2026-05-07 19:29 | 48.44222 | 16.13322 | 7445 ft | 292 kts | 108° |
| 2026-05-07 19:29 | 48.43611 | 16.16248 | 7056 ft | 291 kts | 108° |
| 2026-05-07 19:30 | 48.43016 | 16.19106 | 6891 ft | 281 kts | 108° |
| 2026-05-07 19:30 | 48.42440 | 16.21868 | 6723 ft | 272 kts | 108° |
| 2026-05-07 19:30 | 48.41878 | 16.24541 | 6539 ft | 263 kts | 108° |
| 2026-05-07 19:30 | 48.41333 | 16.27124 | 6376 ft | 255 kts | 108° |
| 2026-05-07 19:31 | 48.40800 | 16.29645 | 6194 ft | 251 kts | 108° |
| 2026-05-07 19:31 | 48.40272 | 16.32143 | 5984 ft | 250 kts | 108° |
| 2026-05-07 19:31 | 48.39744 | 16.34636 | 5721 ft | 249 kts | 108° |
| 2026-05-07 19:31 | 48.39217 | 16.37112 | 5468 ft | 249 kts | 108° |
| 2026-05-07 19:32 | 48.38690 | 16.39585 | 5218 ft | 248 kts | 108° |
| 2026-05-07 19:32 | 48.38173 | 16.42021 | 5037 ft | 248 kts | 108° |
| 2026-05-07 19:32 | 48.37602 | 16.44439 | 4988 ft | 239 kts | 117° |
| 2026-05-07 19:32 | 48.36660 | 16.46400 | 4997 ft | 228 kts | 137° |
| 2026-05-07 19:33 | 48.35379 | 16.47757 | 5003 ft | 224 kts | 157° |
| 2026-05-07 19:33 | 48.33909 | 16.48490 | 4981 ft | 223 kts | 166° |
| 2026-05-07 19:33 | 48.32418 | 16.49125 | 4746 ft | 222 kts | 167° |
| 2026-05-07 19:33 | 48.30930 | 16.49760 | 4470 ft | 222 kts | 167° |
| 2026-05-07 19:34 | 48.29439 | 16.50396 | 4175 ft | 222 kts | 167° |
| 2026-05-07 19:34 | 48.27973 | 16.51022 | 3872 ft | 216 kts | 167° |
| 2026-05-07 19:34 | 48.26555 | 16.51627 | 3605 ft | 206 kts | 168° |
| 2026-05-07 19:34 | 48.25210 | 16.52200 | 3330 ft | 195 kts | 168° |
| 2026-05-07 19:35 | 48.23957 | 16.52735 | 3096 ft | 178 kts | 168° |
| 2026-05-07 19:35 | 48.22822 | 16.53219 | 2834 ft | 162 kts | 168° |
| 2026-05-07 19:35 | 48.21767 | 16.53667 | 2634 ft | 154 kts | 169° |
| 2026-05-07 19:35 | 48.20746 | 16.54099 | 2433 ft | 151 kts | 169° |
| 2026-05-07 19:36 | 48.19745 | 16.54523 | 2234 ft | 148 kts | 168° |
| 2026-05-07 19:36 | 48.18760 | 16.54941 | 2034 ft | 146 kts | 168° |
| 2026-05-07 19:36 | 48.17786 | 16.55354 | 1842 ft | 145 kts | 168° |
| 2026-05-07 19:36 | 48.16821 | 16.55763 | 1652 ft | 144 kts | 167° |
| 2026-05-07 19:37 | 48.15861 | 16.56170 | 1448 ft | 143 kts | 167° |
| 2026-05-07 19:37 | 48.14911 | 16.56573 | 1261 ft | 141 kts | 167° |
| 2026-05-07 19:37 | 48.13974 | 16.56970 | 1060 ft | 139 kts | 168° |
| 2026-05-07 19:37 | 48.13064 | 16.57355 | 877 ft | 137 kts | 168° |
| 2026-05-07 19:38 | 48.12153 | 16.57743 | 690 ft | 134 kts | 167° |
| 2026-05-07 19:38 | 48.11295 | 16.58098 | 619 ft | 113 kts | 163° |
| 2026-05-07 19:38 | 48.10704 | 16.58351 | 612 ft | 64 kts | 165° |
| 2026-05-07 19:38 | 48.10406 | 16.58469 | 612 ft | 36 kts | 174° |
| 2026-05-07 19:39 | 48.10222 | 16.58430 | 609 ft | 11 kts | 194° |
| 2026-05-07 19:39 | 48.10144 | 16.58401 | 609 ft | 12 kts | 194° |
| 2026-05-07 19:39 | 48.10141 | 16.58309 | 616 ft | 11 kts | 334° |
| 2026-05-07 19:39 | 48.10190 | 16.58289 | 616 ft | 11 kts | 345° |
| 2026-05-07 19:40 | 48.10278 | 16.58255 | 621 ft | 9 kts | 346° |
| 2026-05-07 19:40 | 48.10334 | 16.58234 | 610 ft | 8 kts | 346° |
| 2026-05-07 19:40 | 48.10383 | 16.58215 | 622 ft | 7 kts | 343° |
| 2026-05-07 19:40 | 48.10465 | 16.58178 | 615 ft | 18 kts | 343° |
| 2026-05-07 19:41 | 48.10612 | 16.58114 | 613 ft | 24 kts | 343° |
| 2026-05-07 19:41 | 48.10775 | 16.58045 | 617 ft | 25 kts | 344° |
| 2026-05-07 19:41 | 48.10946 | 16.57972 | 617 ft | 26 kts | 344° |
| 2026-05-07 19:41 | 48.11113 | 16.57901 | 621 ft | 20 kts | 345° |
| 2026-05-07 19:42 | 48.11251 | 16.57843 | 617 ft | 21 kts | 344° |
| 2026-05-07 19:42 | 48.11390 | 16.57785 | 621 ft | 21 kts | 345° |
| 2026-05-07 19:42 | 48.11524 | 16.57730 | 612 ft | 15 kts | 344° |
| 2026-05-07 19:42 | 48.11618 | 16.57691 | 620 ft | 13 kts | 344° |
| 2026-05-07 19:43 | 48.11701 | 16.57656 | 614 ft | 12 kts | 344° |
| 2026-05-07 19:43 | 48.11775 | 16.57625 | 613 ft | 10 kts | 344° |
| 2026-05-07 19:43 | 48.11827 | 16.57571 | 620 ft | 9 kts | 294° |
| 2026-05-07 19:43 | 48.11824 | 16.57490 | 612 ft | 8 kts | 256° |
| 2026-05-07 19:44 | 48.11811 | 16.57415 | 609 ft | 7 kts | 256° |
| 2026-05-07 19:44 | 48.11813 | 16.57343 | 612 ft | 7 kts | 293° |
| 2026-05-07 19:44 | 48.11831 | 16.57285 | 619 ft | 6 kts | 295° |
| 2026-05-07 19:44 | 48.11853 | 16.57193 | 609 ft | 11 kts | 274° |
| 2026-05-07 19:45 | 48.11874 | 16.57083 | 617 ft | 11 kts | 294° |
| 2026-05-07 19:45 | 48.11870 | 16.57018 | 618 ft | 6 kts | 217° |
| 2026-05-07 19:45 | 48.11844 | 16.56998 | 623 ft | 1 kts | 206° |
| 2026-05-07 19:45 | 48.11836 | 16.56992 | 622 ft | 2 kts | 206° |
| 2026-05-07 19:46 | 48.11828 | 16.56986 | 618 ft | 0 kts | 206° |